<h2>EGCC -- Manchester</h2><p>newest destination to fly virtually 1 MAY</p>

Oman Air Virtual

About Us. About Our VA

Book Virtual Flights

Fly from Muscat to the World Virtually!

OMV News & Updates

OMV Newest Pilot

OMV Statistics

Total Fights Loged Today: 5
Total Visits Past Hour: 2
Total Pilots Registered: 135
Total Flights Flown: 3004
Total Aircrafts Active: 51
Total Flight Schedules: 266
Total Miles Flown: 3195415
Total Hours Clocked: 8137.24
Total CodeShare flight added: 32 Flights
VA average landing rate: -26.08
Virtual Airline Rank: 132

Flight Tracking

LIVE Flight Tracking and Route

Destinations

View Our Wide Virtual Network

Opreated by # No. Origin Destination Fleet / PIC
OMA5334 OERK OOMS B737-81M

PIC: Fahad A.salaam
OMA231 OOMS VOHS 737-8SH

PIC: Munther Alhadidi
OMA5002 HAAB OOMS B737-81M

PIC: Mohammed Al-Yousafi
OMA935 OOMS OODQ B737-8QK

PIC: Zakariya Al Zakwani
Opreated by # No. Origin Destination Landing Rate Status
OMA5421

View Report
OEDF OOMS 0 ft/min Not Record Approval Pending
OMA843

View Report
OOMS RPLL Kiss Landing -98 ft/min Approval Pending
OMA614

View Report
OMDB OOMS Kiss Landing -85 ft/min Approval Pending
OMA936

View Report
OODQ OOMS -291 ft/min Normal landing Approval Pending
OMA935

View Report
OOMS OODQ -136 ft/min Normal landing Accepted

Source: IVAO Metar and TAF Information.

Muscat International Airport (ICAO: OOMS)
METAR: OOMS 262250Z 30005KT CAVOK 27/08 Q1006 NOSIG
TAF: OOMS 261700Z 2618/2800 VRB02KT 8000 NSC TEMPO 2621/2703 21012KT BECMG 2706/2708 06012KT

Salalah International Airport (ICAO: OOSA)
METAR: OOSA 262250Z 35005KT 9999 SCT025 27/23 Q1010 NOSIG
TAF: OOSA 261740Z 2618/2800 20008KT 9999 BKN025 BECMG 2704/2706 20018KT BECMG 2716/2718 VRB03KT

Oman Air Virtual is no way affiliated to the real Oman Air. How ever the brand logo, colors belongs to Oman Air and we use only for the Simulation Purpose for the virtual aviation enthousiast around the globe.

If you are looking for Oman Air website, we kindly request you to visit www.omanair.com

ATC Online IVAO
Pilots Online IVAO
Member Online